Time;durP1;ratioP1;P1;durP2;ratioP2;P2;SDS_P1;SDS_P2;PMS_P1;PMS_P2;Temp;Humidity;BMP_temperature;BMP_pressure;BME280_temperature;BME280_humidity;BME280_pressure;Samples;Min_cycle;Max_cycle;Signal;HPM_P1;HPM_P2
2022/10/12 00:01:52;;;;;;;8.48;2.33;;;;;;;;;;5080303;28;20040;-57
2022/10/12 00:04:17;;;;;;;6.00;2.30;;;;;;;;;;5081482;28;20047;-56
2022/10/12 00:06:43;;;;;;;5.82;2.10;;;;;;;;;;5076129;28;20036;-55
2022/10/12 00:09:08;;;;;;;8.70;2.55;;;;;;;;;;5083916;28;20124;-54
2022/10/12 00:11:33;;;;;;;5.57;1.88;;;;;;;;;;5081729;28;20035;-50
2022/10/12 00:14:00;;;;;;;6.82;2.22;;;;;;;;;;5080891;28;20047;-53
2022/10/12 00:16:30;;;;;;;7.00;2.33;;;;;;;;;;5084488;28;20052;-54
2022/10/12 00:18:56;;;;;;;4.68;1.90;;;;;;;;;;5084328;28;20428;-56
2022/10/12 00:21:22;;;;;;;6.93;2.50;;;;;;;;;;5080237;28;20044;-56
2022/10/12 00:23:48;;;;;;;6.63;2.40;;;;;;;;;;5085349;28;20388;-59
2022/10/12 00:26:23;;;;;;;9.32;2.38;;;;;;;;;;5082907;28;20024;-57
2022/10/12 00:28:53;;;;;;;7.40;2.13;;;;;;;;;;5086352;28;20289;-58
2022/10/12 00:31:19;;;;;;;10.05;2.42;;;;;;;;;;5083446;28;20066;-55
2022/10/12 00:33:46;;;;;;;11.07;1.90;;;;;;;;;;5080727;28;20048;-57
2022/10/12 00:36:25;;;;;;;6.70;2.22;;;;;;;;;;5083605;28;20487;-54
2022/10/12 00:38:53;;;;;;;7.43;1.95;;;;;;;;;;5079063;28;20027;-59
2022/10/12 00:41:21;;;;;;;6.18;2.00;;;;;;;;;;5088745;28;20442;-53
2022/10/12 00:43:47;;;;;;;6.30;1.98;;;;;;;;;;5087062;28;20048;-59
2022/10/12 00:46:21;;;;;;;5.80;1.88;;;;;;;;;;5079667;28;20044;-58
2022/10/12 00:48:51;;;;;;;7.30;2.00;;;;;;;;;;5083580;28;20523;-58
2022/10/12 00:51:18;;;;;;;5.88;1.85;;;;;;;;;;5087021;28;20067;-54
2022/10/12 00:53:51;;;;;;;7.18;2.10;;;;;;;;;;5086677;28;20028;-57
2022/10/12 00:56:21;;;;;;;5.83;1.97;;;;;;;;;;5084777;28;20059;-57
2022/10/12 00:58:48;;;;;;;10.10;1.73;;;;;;;;;;5085307;28;20059;-58
2022/10/12 01:01:14;;;;;;;3.72;1.50;;;;;;;;;;5085787;28;20055;-59
2022/10/12 01:03:40;;;;;;;4.45;1.75;;;;;;;;;;5086746;28;20043;-57
2022/10/12 01:06:06;;;;;;;6.10;1.77;;;;;;;;;;5087143;28;20040;-57
2022/10/12 01:08:32;;;;;;;5.95;1.65;;;;;;;;;;5088536;28;20620;-57
2022/10/12 01:10:57;;;;;;;5.60;1.90;;;;;;;;;;5084369;28;20139;-58
2022/10/12 01:13:23;;;;;;;5.97;2.33;;;;;;;;;;5085048;28;20127;-57
2022/10/12 01:15:55;;;;;;;5.25;1.83;;;;;;;;;;5090591;28;20154;-59
2022/10/12 01:18:29;;;;;;;7.38;1.77;;;;;;;;;;5091059;28;20136;-55
2022/10/12 01:21:04;;;;;;;5.72;1.95;;;;;;;;;;5079390;28;20093;-56
2022/10/12 01:23:47;;;;;;;4.75;1.92;;;;;;;;;;5087442;28;20028;-59
2022/10/12 01:26:29;;;;;;;10.23;2.05;;;;;;;;;;5084796;28;20032;-69
2022/10/12 01:29:00;;;;;;;4.03;1.73;;;;;;;;;;5086150;28;20040;-54
2022/10/12 01:32:11;;;;;;;4.20;1.65;;;;;;;;;;5088269;28;20084;-55
2022/10/12 01:34:57;;;;;;;6.00;1.98;;;;;;;;;;5081303;28;20044;-58
2022/10/12 01:37:47;;;;;;;10.10;1.95;;;;;;;;;;5071661;28;20081;-58
2022/10/12 01:40:19;;;;;;;4.85;1.88;;;;;;;;;;5081624;28;20082;-54
2022/10/12 01:42:45;;;;;;;4.90;1.70;;;;;;;;;;5080779;28;20553;-58
2022/10/12 01:45:13;;;;;;;4.05;1.83;;;;;;;;;;5082678;28;20101;-55
2022/10/12 01:47:41;;;;;;;5.43;1.77;;;;;;;;;;5079534;28;20111;-56
2022/10/12 01:50:09;;;;;;;7.07;1.55;;;;;;;;;;5083226;28;20629;-55
2022/10/12 01:52:46;;;;;;;5.13;1.67;;;;;;;;;;5081567;28;20142;-60
2022/10/12 01:55:39;;;;;;;4.93;1.35;;;;;;;;;;5084238;28;20036;-56
2022/10/12 01:58:08;;;;;;;4.23;1.87;;;;;;;;;;5085917;28;20483;-56
2022/10/12 02:00:42;;;;;;;5.10;1.85;;;;;;;;;;5083049;28;20347;-58
2022/10/12 02:03:40;;;;;;;3.55;1.73;;;;;;;;;;5078135;28;20237;-56
2022/10/12 02:06:10;;;;;;;8.48;1.70;;;;;;;;;;5077257;28;20097;-58
2022/10/12 02:08:57;;;;;;;4.93;1.70;;;;;;;;;;5084097;28;20040;-55
2022/10/12 02:11:26;;;;;;;6.68;1.95;;;;;;;;;;5086694;28;20047;-56
2022/10/12 02:14:04;;;;;;;5.18;1.90;;;;;;;;;;5089719;28;20067;-57
2022/10/12 02:16:44;;;;;;;5.50;1.85;;;;;;;;;;5079375;28;20063;-59
2022/10/12 02:19:14;;;;;;;5.68;1.80;;;;;;;;;;5083036;28;20048;-58
2022/10/12 02:21:40;;;;;;;9.43;2.38;;;;;;;;;;5085201;28;20658;-56
2022/10/12 02:24:08;;;;;;;7.85;2.05;;;;;;;;;;5083695;28;20076;-60
2022/10/12 02:26:38;;;;;;;3.80;1.85;;;;;;;;;;5084033;28;20031;-55
2022/10/12 02:29:07;;;;;;;6.28;1.98;;;;;;;;;;5083085;28;20436;-57
2022/10/12 02:31:55;;;;;;;8.25;1.90;;;;;;;;;;5084616;28;20371;-56
2022/10/12 02:34:29;;;;;;;4.78;1.75;;;;;;;;;;5078212;28;20052;-57
2022/10/12 02:37:05;;;;;;;;;;;;;;;;;;5077204;28;20040;-56
2022/10/12 02:40:08;;;;;;;5.82;1.88;;;;;;;;;;5083844;28;19941;-55
2022/10/12 02:42:39;;;;;;;4.32;1.77;;;;;;;;;;5095356;27;20445;-56
2022/10/12 02:45:07;;;;;;;6.93;1.83;;;;;;;;;;5084471;28;20096;-57
2022/10/12 02:47:34;;;;;;;7.55;2.15;;;;;;;;;;5080607;28;20024;-58
2022/10/12 02:50:01;;;;;;;4.03;1.90;;;;;;;;;;5085411;28;20557;-57
2022/10/12 02:52:28;;;;;;;7.05;2.10;;;;;;;;;;5083612;28;20068;-59
2022/10/12 02:54:53;;;;;;;4.47;2.00;;;;;;;;;;5079084;28;20091;-56
2022/10/12 02:57:19;;;;;;;6.45;2.10;;;;;;;;;;5076285;28;20044;-54
2022/10/12 02:59:44;;;;;;;9.05;1.85;;;;;;;;;;5078672;28;20055;-58
2022/10/12 03:02:10;;;;;;;5.90;1.90;;;;;;;;;;5082504;28;20118;-59
2022/10/12 03:04:36;;;;;;;8.10;1.92;;;;;;;;;;5086604;28;20380;-56
2022/10/12 03:07:01;;;;;;;4.30;2.05;;;;;;;;;;5080022;28;20051;-56
2022/10/12 03:09:27;;;;;;;6.40;2.20;;;;;;;;;;5083317;28;20039;-56
2022/10/12 03:11:52;;;;;;;4.55;1.75;;;;;;;;;;5083329;28;20040;-56
2022/10/12 03:14:19;;;;;;;6.15;2.20;;;;;;;;;;5080481;28;20027;-61
2022/10/12 03:16:45;;;;;;;7.03;2.28;;;;;;;;;;5077956;28;20044;-58
2022/10/12 03:19:11;;;;;;;4.13;1.65;;;;;;;;;;5084418;28;20049;-56
2022/10/12 03:21:36;;;;;;;4.20;1.92;;;;;;;;;;5080593;28;20036;-55
2022/10/12 03:24:01;;;;;;;6.47;1.55;;;;;;;;;;5081619;28;20076;-59
2022/10/12 03:26:27;;;;;;;5.18;1.95;;;;;;;;;;5081742;28;20478;-56
2022/10/12 03:28:52;;;;;;;4.20;1.98;;;;;;;;;;5080381;28;20040;-58
2022/10/12 03:31:17;;;;;;;4.85;2.00;;;;;;;;;;5081243;28;20557;-58
2022/10/12 03:33:43;;;;;;;7.00;1.70;;;;;;;;;;5079383;28;20100;-58
2022/10/12 03:36:08;;;;;;;5.20;1.85;;;;;;;;;;5081119;28;20052;-59
2022/10/12 03:38:34;;;;;;;4.68;1.70;;;;;;;;;;5081593;28;20055;-59
2022/10/12 03:40:59;;;;;;;4.72;1.88;;;;;;;;;;5084268;28;20108;-61
2022/10/12 03:43:25;;;;;;;6.07;1.90;;;;;;;;;;5079613;28;20056;-59
2022/10/12 03:45:51;;;;;;;8.27;1.90;;;;;;;;;;5078926;28;20044;-57
2022/10/12 03:48:17;;;;;;;8.90;2.40;;;;;;;;;;5084299;28;20044;-57
2022/10/12 03:50:48;;;;;;;5.43;2.20;;;;;;;;;;5082783;28;20032;-59
2022/10/12 03:53:13;;;;;;;7.82;2.33;;;;;;;;;;5082409;28;20070;-58
2022/10/12 03:55:39;;;;;;;7.68;2.42;;;;;;;;;;5080058;28;20041;-57
2022/10/12 03:58:04;;;;;;;10.52;2.55;;;;;;;;;;5081492;28;20044;-56
2022/10/12 04:00:29;;;;;;;13.98;2.30;;;;;;;;;;5076292;28;21745;-55
2022/10/12 04:02:55;;;;;;;6.28;2.40;;;;;;;;;;5083233;28;20035;-58
2022/10/12 04:05:21;;;;;;;7.68;2.60;;;;;;;;;;5088714;28;20035;-59
2022/10/12 04:07:46;;;;;;;6.03;2.42;;;;;;;;;;5086800;28;20478;-58
2022/10/12 04:10:11;;;;;;;8.20;2.55;;;;;;;;;;5083334;28;20044;-56
2022/10/12 04:12:37;;;;;;;7.88;2.53;;;;;;;;;;5084863;28;20040;-58
2022/10/12 04:15:03;;;;;;;8.95;2.40;;;;;;;;;;5084701;28;20044;-57
2022/10/12 04:17:28;;;;;;;6.82;2.20;;;;;;;;;;5087600;28;20042;-58
2022/10/12 04:19:54;;;;;;;6.43;2.17;;;;;;;;;;5084031;28;20040;-55
2022/10/12 04:22:19;;;;;;;4.85;1.90;;;;;;;;;;5084920;28;20388;-59
2022/10/12 04:24:45;;;;;;;4.70;2.20;;;;;;;;;;5085885;28;20394;-60
2022/10/12 04:27:10;;;;;;;3.38;2.05;;;;;;;;;;5084436;28;20444;-59
2022/10/12 04:29:36;;;;;;;10.30;2.65;;;;;;;;;;5084118;28;20097;-57
2022/10/12 04:32:01;;;;;;;9.77;2.65;;;;;;;;;;5091301;28;20093;-57
2022/10/12 04:34:27;;;;;;;9.02;4.10;;;;;;;;;;5087026;28;20055;-60
2022/10/12 04:36:53;;;;;;;10.52;3.42;;;;;;;;;;5086167;28;20044;-60
2022/10/12 04:39:18;;;;;;;7.60;2.60;;;;;;;;;;5084314;28;20079;-58
2022/10/12 04:41:43;;;;;;;10.13;2.60;;;;;;;;;;5087560;28;20032;-59
2022/10/12 04:44:09;;;;;;;7.55;2.50;;;;;;;;;;5086986;28;20043;-56
2022/10/12 04:46:34;;;;;;;10.27;2.60;;;;;;;;;;5086599;28;20032;-58
2022/10/12 04:49:00;;;;;;;7.82;2.70;;;;;;;;;;5087362;28;20585;-58
2022/10/12 04:51:25;;;;;;;7.15;2.90;;;;;;;;;;5084739;28;20036;-57
2022/10/12 04:53:51;;;;;;;5.53;2.50;;;;;;;;;;5089097;28;20107;-58
2022/10/12 04:56:16;;;;;;;6.35;2.83;;;;;;;;;;5087906;28;20036;-59
2022/10/12 04:58:42;;;;;;;6.55;2.50;;;;;;;;;;5087326;28;20052;-63
2022/10/12 05:01:08;;;;;;;7.60;2.55;;;;;;;;;;5089162;28;20123;-60
2022/10/12 05:03:33;;;;;;;7.72;2.90;;;;;;;;;;5089440;28;20052;-60
2022/10/12 05:05:59;;;;;;;8.13;2.65;;;;;;;;;;5087525;28;20536;-59
2022/10/12 05:08:24;;;;;;;7.90;2.85;;;;;;;;;;5083220;28;20031;-59
2022/10/12 05:10:50;;;;;;;6.95;2.80;;;;;;;;;;5085706;28;20525;-59
2022/10/12 05:13:15;;;;;;;7.07;2.70;;;;;;;;;;5089040;28;20059;-59
2022/10/12 05:15:42;;;;;;;11.93;2.58;;;;;;;;;;5083660;28;20964;-57
2022/10/12 05:18:07;;;;;;;6.40;2.38;;;;;;;;;;5083374;28;20045;-58
2022/10/12 05:20:33;;;;;;;13.50;3.03;;;;;;;;;;5083671;28;20035;-61
2022/10/12 05:22:59;;;;;;;5.15;2.55;;;;;;;;;;5085541;28;20446;-60
2022/10/12 05:25:24;;;;;;;7.20;2.75;;;;;;;;;;5087515;28;20044;-60
2022/10/12 05:27:49;;;;;;;8.27;2.47;;;;;;;;;;5081129;28;20090;-60
2022/10/12 05:30:15;;;;;;;6.57;2.30;;;;;;;;;;5083777;28;20055;-60
2022/10/12 05:32:43;;;;;;;4.80;2.50;;;;;;;;;;5083085;28;20035;-60
2022/10/12 05:35:09;;;;;;;12.52;2.83;;;;;;;;;;5087547;28;20119;-60
2022/10/12 05:37:34;;;;;;;6.10;2.45;;;;;;;;;;5085056;28;20056;-58
2022/10/12 05:40:00;;;;;;;10.25;3.10;;;;;;;;;;5079974;28;20135;-59
2022/10/12 05:42:25;;;;;;;5.57;2.70;;;;;;;;;;5083896;28;20036;-59
2022/10/12 05:44:51;;;;;;;8.02;3.05;;;;;;;;;;5087908;28;20032;-58
2022/10/12 05:47:16;;;;;;;10.35;3.30;;;;;;;;;;5081980;28;20024;-60
2022/10/12 05:49:41;;;;;;;9.23;3.58;;;;;;;;;;5085124;28;20055;-59
2022/10/12 05:52:07;;;;;;;11.27;2.83;;;;;;;;;;5084953;28;20086;-59
2022/10/12 05:54:32;;;;;;;5.47;2.80;;;;;;;;;;5083979;28;20135;-60
2022/10/12 05:56:57;;;;;;;11.68;3.10;;;;;;;;;;5084234;28;20112;-59
2022/10/12 05:59:23;;;;;;;8.73;2.90;;;;;;;;;;5081833;28;22244;-59
2022/10/12 06:01:48;;;;;;;7.20;2.67;;;;;;;;;;5082910;28;20068;-58
2022/10/12 06:04:14;;;;;;;10.80;3.28;;;;;;;;;;5084690;28;20464;-59
2022/10/12 06:06:40;;;;;;;7.38;3.17;;;;;;;;;;5080891;28;20048;-58
2022/10/12 06:09:05;;;;;;;7.05;3.35;;;;;;;;;;5083970;28;20071;-58
2022/10/12 06:11:31;;;;;;;9.30;3.50;;;;;;;;;;5084755;28;20541;-58
2022/10/12 06:13:56;;;;;;;11.82;3.88;;;;;;;;;;5084154;28;20123;-58
2022/10/12 06:16:22;;;;;;;8.40;3.22;;;;;;;;;;5082538;28;20170;-58
2022/10/12 06:18:47;;;;;;;9.00;2.95;;;;;;;;;;5084631;28;20040;-59
2022/10/12 06:21:13;;;;;;;10.52;2.80;;;;;;;;;;5084378;28;20055;-58
2022/10/12 06:23:38;;;;;;;7.22;2.78;;;;;;;;;;5084737;28;20039;-59
2022/10/12 06:26:04;;;;;;;6.82;2.92;;;;;;;;;;5076108;28;20356;-61
2022/10/12 06:28:29;;;;;;;8.15;2.50;;;;;;;;;;5083707;28;20040;-57
2022/10/12 06:30:56;;;;;;;9.95;3.10;;;;;;;;;;5086626;28;20056;-56
2022/10/12 06:33:23;;;;;;;10.95;3.63;;;;;;;;;;5084722;28;20121;-55
2022/10/12 06:35:48;;;;;;;11.00;2.97;;;;;;;;;;5080294;28;20028;-55
2022/10/12 06:38:14;;;;;;;7.22;3.28;;;;;;;;;;5081244;28;20134;-57
2022/10/12 06:40:40;;;;;;;6.93;2.80;;;;;;;;;;5081046;28;20423;-55
2022/10/12 06:43:05;;;;;;;9.10;2.90;;;;;;;;;;5079001;28;20036;-54
2022/10/12 06:45:31;;;;;;;7.97;2.58;;;;;;;;;;5080242;28;20056;-55
2022/10/12 06:47:57;;;;;;;9.88;2.53;;;;;;;;;;5084506;28;20517;-57
2022/10/12 06:50:23;;;;;;;7.25;2.78;;;;;;;;;;5085599;28;20020;-58
2022/10/12 06:52:48;;;;;;;10.18;2.97;;;;;;;;;;5080464;28;20040;-54
2022/10/12 06:55:13;;;;;;;14.27;2.97;;;;;;;;;;5082065;28;20044;-56
2022/10/12 06:57:39;;;;;;;8.88;3.25;;;;;;;;;;5081188;28;20479;-56
2022/10/12 07:00:06;;;;;;;7.18;2.63;;;;;;;;;;5080930;28;20121;-59
2022/10/12 07:02:32;;;;;;;8.07;2.58;;;;;;;;;;5085186;28;20142;-56
2022/10/12 07:04:58;;;;;;;6.97;2.60;;;;;;;;;;5082024;28;20105;-56
2022/10/12 07:07:23;;;;;;;7.55;2.97;;;;;;;;;;5083290;28;20052;-65
2022/10/12 07:09:50;;;;;;;9.35;2.53;;;;;;;;;;5083167;28;20112;-67
2022/10/12 07:12:15;;;;;;;9.65;3.10;;;;;;;;;;5086212;28;20444;-65
2022/10/12 07:14:40;;;;;;;8.00;2.80;;;;;;;;;;5085719;28;20174;-66
2022/10/12 07:17:06;;;;;;;10.13;3.17;;;;;;;;;;5083321;28;20032;-64
2022/10/12 07:19:31;;;;;;;7.32;2.90;;;;;;;;;;5078538;28;20045;-64
2022/10/12 07:21:56;;;;;;;4.50;2.50;;;;;;;;;;5086455;28;20159;-64
2022/10/12 07:24:22;;;;;;;6.35;2.70;;;;;;;;;;5091488;28;20062;-66
2022/10/12 07:26:49;;;;;;;5.78;2.88;;;;;;;;;;5089016;28;20051;-65
2022/10/12 07:29:14;;;;;;;8.00;2.90;;;;;;;;;;5088333;28;20028;-71
2022/10/12 07:31:41;;;;;;;6.22;2.83;;;;;;;;;;5087275;28;20097;-66
2022/10/12 07:34:07;;;;;;;8.27;2.70;;;;;;;;;;5085095;28;20044;-65
2022/10/12 07:36:32;;;;;;;5.53;2.80;;;;;;;;;;5088695;28;20055;-66
2022/10/12 07:38:58;;;;;;;7.45;2.90;;;;;;;;;;5089567;28;25647;-65
2022/10/12 07:41:23;;;;;;;7.00;2.70;;;;;;;;;;5092449;28;20028;-69
2022/10/12 07:43:53;;;;;;;7.40;2.95;;;;;;;;;;5090110;28;20046;-68
2022/10/12 07:46:18;;;;;;;9.48;3.00;;;;;;;;;;5089613;28;20406;-64
2022/10/12 07:48:44;;;;;;;7.55;2.95;;;;;;;;;;5087544;28;20044;-64
2022/10/12 07:51:09;;;;;;;5.90;3.08;;;;;;;;;;5092195;28;20043;-64
2022/10/12 07:53:37;;;;;;;5.80;2.75;;;;;;;;;;5093636;28;20030;-64
2022/10/12 07:56:13;;;;;;;6.55;2.55;;;;;;;;;;5091710;28;20060;-64
2022/10/12 07:58:39;;;;;;;6.93;2.80;;;;;;;;;;5090341;28;20370;-66
2022/10/12 08:01:06;;;;;;;11.38;3.05;;;;;;;;;;5088093;28;20052;-66
2022/10/12 08:03:31;;;;;;;5.43;2.70;;;;;;;;;;5091098;28;20169;-63
2022/10/12 08:05:57;;;;;;;9.20;2.83;;;;;;;;;;5090077;28;20066;-64
2022/10/12 08:08:22;;;;;;;6.20;3.00;;;;;;;;;;5090094;28;20035;-63
2022/10/12 08:10:48;;;;;;;8.43;3.03;;;;;;;;;;5089181;28;20743;-65
2022/10/12 08:13:13;;;;;;;7.50;2.88;;;;;;;;;;5089821;28;20040;-65
2022/10/12 08:15:39;;;;;;;6.13;2.90;;;;;;;;;;5085012;28;20082;-65
2022/10/12 08:18:04;;;;;;;7.35;2.90;;;;;;;;;;5092509;28;20032;-65
2022/10/12 08:20:29;;;;;;;11.27;3.30;;;;;;;;;;5090602;28;20099;-65
2022/10/12 08:22:55;;;;;;;5.78;2.97;;;;;;;;;;5093624;28;20047;-65
2022/10/12 08:25:20;;;;;;;8.77;3.30;;;;;;;;;;5090173;28;20415;-65
2022/10/12 08:27:45;;;;;;;13.55;3.40;;;;;;;;;;5091705;28;20046;-65
2022/10/12 08:30:11;;;;;;;10.77;3.55;;;;;;;;;;5091635;28;20050;-65
2022/10/12 08:32:37;;;;;;;8.98;3.13;;;;;;;;;;5091551;28;20024;-66
2022/10/12 08:35:03;;;;;;;9.98;3.22;;;;;;;;;;5090534;28;20059;-65
2022/10/12 08:37:29;;;;;;;7.35;3.13;;;;;;;;;;5092256;28;20092;-65
2022/10/12 08:39:54;;;;;;;6.93;2.95;;;;;;;;;;5090058;28;20052;-65
2022/10/12 08:42:43;;;;;;;6.90;3.17;;;;;;;;;;5090740;28;20613;-65
2022/10/12 08:45:49;;;;;;;7.95;2.83;;;;;;;;;;5090107;28;20043;-65
2022/10/12 08:48:20;;;;;;;8.50;3.00;;;;;;;;;;5089323;28;20445;-66
2022/10/12 08:50:59;;;;;;;5.13;3.20;;;;;;;;;;5089624;28;20024;-65
2022/10/12 08:53:30;;;;;;;10.57;3.00;;;;;;;;;;5091819;28;20149;-66
2022/10/12 08:55:55;;;;;;;9.77;3.33;;;;;;;;;;5089564;28;20050;-64
2022/10/12 08:58:31;;;;;;;10.02;3.38;;;;;;;;;;5090077;28;20131;-65
2022/10/12 09:01:08;;;;;;;9.70;3.35;;;;;;;;;;5092594;28;20043;-64
2022/10/12 09:03:41;;;;;;;9.95;2.70;;;;;;;;;;5088224;28;20052;-64
2022/10/12 09:06:13;;;;;;;10.35;2.83;;;;;;;;;;5091700;28;20848;-63
2022/10/12 09:09:00;;;;;;;8.90;2.92;;;;;;;;;;5091229;28;20475;-64
2022/10/12 09:11:51;;;;;;;7.22;2.97;;;;;;;;;;5088226;28;20043;-64
2022/10/12 09:14:22;;;;;;;7.78;2.72;;;;;;;;;;5090126;28;20400;-65
2022/10/12 09:16:50;;;;;;;6.25;2.45;;;;;;;;;;5090171;28;20081;-65
2022/10/12 09:19:23;;;;;;;8.05;2.75;;;;;;;;;;5087110;28;20510;-64
2022/10/12 09:21:49;;;;;;;10.60;2.80;;;;;;;;;;5090902;28;20391;-65
2022/10/12 09:24:26;;;;;;;8.70;2.83;;;;;;;;;;5091768;28;20055;-65
2022/10/12 09:26:56;;;;;;;8.50;2.75;;;;;;;;;;5089987;28;20069;-65
2022/10/12 09:29:27;;;;;;;14.98;3.42;;;;;;;;;;5088650;28;20391;-64
2022/10/12 09:32:17;;;;;;;12.95;3.33;;;;;;;;;;5091600;28;20032;-64
2022/10/12 09:34:43;;;;;;;10.70;3.15;;;;;;;;;;5090733;28;20040;-65
2022/10/12 09:37:19;;;;;;;10.45;3.83;;;;;;;;;;5087861;28;20063;-65
2022/10/12 09:39:45;;;;;;;15.20;3.97;;;;;;;;;;5090328;28;20109;-64
2022/10/12 09:42:11;;;;;;;12.80;3.47;;;;;;;;;;5091552;28;20486;-65
2022/10/12 09:44:39;;;;;;;10.20;3.25;;;;;;;;;;5088027;28;20142;-68
2022/10/12 09:47:20;;;;;;;9.75;3.53;;;;;;;;;;5085181;28;20059;-66
2022/10/12 09:49:50;;;;;;;12.80;3.35;;;;;;;;;;5089742;28;20043;-65
2022/10/12 09:52:26;;;;;;;12.05;3.95;;;;;;;;;;5087664;28;20467;-65
2022/10/12 09:54:54;;;;;;;11.43;3.60;;;;;;;;;;5088925;28;20044;-66
2022/10/12 09:57:33;;;;;;;14.38;3.20;;;;;;;;;;5090254;28;20142;-64
2022/10/12 10:00:05;;;;;;;11.15;3.05;;;;;;;;;;5095125;28;20410;-65
2022/10/12 10:02:31;;;;;;;8.02;3.20;;;;;;;;;;5087915;28;20118;-64
2022/10/12 10:05:28;;;;;;;11.45;3.33;;;;;;;;;;5086016;28;20042;-64
2022/10/12 10:08:13;;;;;;;8.13;3.10;;;;;;;;;;5071643;28;20100;-60
2022/10/12 10:10:52;;;;;;;11.07;3.85;;;;;;;;;;5084074;28;20131;-60
2022/10/12 10:13:20;;;;;;;13.35;4.00;;;;;;;;;;5088605;28;20055;-59
2022/10/12 10:15:49;;;;;;;12.50;3.97;;;;;;;;;;5080301;28;20071;-59
2022/10/12 10:18:34;;;;;;;11.65;4.45;;;;;;;;;;5082617;28;20044;-60
2022/10/12 10:21:03;;;;;;;14.05;5.18;;;;;;;;;;5080196;28;20087;-60
2022/10/12 10:23:31;;;;;;;13.13;4.50;;;;;;;;;;5083946;28;20054;-60
2022/10/12 10:26:03;;;;;;;15.95;4.70;;;;;;;;;;5082316;28;20050;-62
2022/10/12 10:28:39;;;;;;;13.57;4.25;;;;;;;;;;5084477;28;20109;-64
2022/10/12 10:31:26;;;;;;;10.50;4.50;;;;;;;;;;5084031;28;20074;-64
2022/10/12 10:34:12;;;;;;;11.85;4.40;;;;;;;;;;5080063;28;20052;-63
2022/10/12 10:36:47;;;;;;;12.27;4.72;;;;;;;;;;5083296;28;20040;-63
2022/10/12 10:39:23;;;;;;;7.63;4.22;;;;;;;;;;5086938;28;20521;-64
2022/10/12 10:41:50;;;;;;;13.65;4.55;;;;;;;;;;5080450;28;20145;-63
2022/10/12 10:44:24;;;;;;;14.43;4.97;;;;;;;;;;5083112;28;20036;-65
2022/10/12 10:46:53;;;;;;;15.20;5.38;;;;;;;;;;5082888;28;20105;-63
2022/10/12 10:49:49;;;;;;;18.05;4.78;;;;;;;;;;5084187;28;20062;-62
2022/10/12 10:52:25;;;;;;;12.20;5.00;;;;;;;;;;5082636;28;20052;-63
2022/10/12 10:55:17;;;;;;;11.95;5.25;;;;;;;;;;5080251;28;20044;-64
2022/10/12 10:57:49;;;;;;;11.93;4.80;;;;;;;;;;5081788;28;20044;-63
2022/10/12 11:00:20;;;;;;;19.33;5.35;;;;;;;;;;5082361;28;20043;-63
2022/10/12 11:02:55;;;;;;;13.40;5.03;;;;;;;;;;5084696;28;20032;-63
2022/10/12 11:05:27;;;;;;;12.55;5.32;;;;;;;;;;5085685;28;20929;-61
2022/10/12 11:07:56;;;;;;;12.13;5.05;;;;;;;;;;5088430;28;20040;-62
2022/10/12 11:10:33;;;;;;;21.85;5.72;;;;;;;;;;5082530;28;20063;-62
2022/10/12 11:13:05;;;;;;;11.48;4.50;;;;;;;;;;5081407;28;20048;-62
2022/10/12 11:15:43;;;;;;;11.88;4.70;;;;;;;;;;5086906;28;20149;-62
2022/10/12 11:18:23;;;;;;;13.60;5.15;;;;;;;;;;5085014;28;20392;-63
2022/10/12 11:20:56;;;;;;;12.48;4.85;;;;;;;;;;5083190;28;20046;-62
2022/10/12 11:23:39;;;;;;;11.63;5.05;;;;;;;;;;5083083;28;20039;-64
2022/10/12 11:26:04;;;;;;;14.30;5.37;;;;;;;;;;5081490;28;20058;-64
2022/10/12 11:28:31;;;;;;;9.75;5.00;;;;;;;;;;5082896;28;20426;-63
2022/10/12 11:30:57;;;;;;;17.40;5.68;;;;;;;;;;5083331;28;20490;-62
2022/10/12 11:33:28;;;;;;;12.60;5.13;;;;;;;;;;5082922;28;20036;-62
2022/10/12 11:35:55;;;;;;;12.70;5.20;;;;;;;;;;5088148;28;20035;-63
2022/10/12 11:38:30;;;;;;;12.50;5.00;;;;;;;;;;5088421;28;20130;-65
2022/10/12 11:41:29;;;;;;;14.20;5.40;;;;;;;;;;5081304;28;20044;-67
2022/10/12 11:44:01;;;;;;;16.13;4.68;;;;;;;;;;5084396;28;20052;-63
2022/10/12 11:46:35;;;;;;;12.27;4.68;;;;;;;;;;5081615;28;20047;-63
2022/10/12 11:49:22;;;;;;;12.27;4.25;;;;;;;;;;5082595;28;20137;-61
2022/10/12 11:51:50;;;;;;;12.23;4.50;;;;;;;;;;5087129;28;20054;-63
2022/10/12 11:54:41;;;;;;;7.10;3.72;;;;;;;;;;5085835;28;20054;-63
2022/10/12 11:57:12;;;;;;;11.60;4.70;;;;;;;;;;5083267;28;20106;-63
2022/10/12 11:59:43;;;;;;;15.20;4.75;;;;;;;;;;5081692;28;20119;-62
2022/10/12 12:02:12;;;;;;;11.20;4.40;;;;;;;;;;5083573;28;20478;-62
2022/10/12 12:04:41;;;;;;;15.05;4.72;;;;;;;;;;5086261;28;20387;-62
2022/10/12 12:07:35;;;;;;;9.07;4.32;;;;;;;;;;5080496;28;20089;-63
2022/10/12 12:10:23;;;;;;;13.32;4.30;;;;;;;;;;5074418;28;20040;-63
2022/10/12 12:13:16;;;;;;;6.82;3.88;;;;;;;;;;5084953;28;20433;-64
2022/10/12 12:16:11;;;;;;;9.80;4.47;;;;;;;;;;5081341;28;20048;-63
2022/10/12 12:19:07;;;;;;;9.30;4.50;;;;;;;;;;5062473;28;20286;-63
2022/10/12 12:22:11;;;;;;;9.68;4.68;;;;;;;;;;5080575;28;20101;-63
2022/10/12 12:24:37;;;;;;;10.32;4.68;;;;;;;;;;5088226;28;20055;-63
2022/10/12 12:27:03;;;;;;;11.65;5.38;;;;;;;;;;5084850;28;20044;-63
2022/10/12 12:29:28;;;;;;;13.65;4.63;;;;;;;;;;5088402;28;20064;-63
2022/10/12 12:31:58;;;;;;;13.55;4.43;;;;;;;;;;5082965;28;20049;-63
2022/10/12 12:34:24;;;;;;;11.88;5.35;;;;;;;;;;5082790;28;20099;-63
2022/10/12 12:36:51;;;;;;;10.30;4.82;;;;;;;;;;5089296;28;20120;-64
2022/10/12 12:39:31;;;;;;;15.43;5.35;;;;;;;;;;5086589;28;20058;-64
2022/10/12 12:41:59;;;;;;;10.57;4.72;;;;;;;;;;5085636;28;20017;-63
2022/10/12 12:44:36;;;;;;;13.48;4.65;;;;;;;;;;5085291;28;20395;-63
2022/10/12 12:47:01;;;;;;;9.60;4.20;;;;;;;;;;5086656;28;20157;-63
2022/10/12 12:49:28;;;;;;;11.52;4.65;;;;;;;;;;5086115;28;20044;-63
2022/10/12 12:51:56;;;;;;;11.32;4.47;;;;;;;;;;5085669;28;20122;-63
2022/10/12 12:54:23;;;;;;;11.82;5.00;;;;;;;;;;5079384;28;20482;-63
2022/10/12 12:57:09;;;;;;;11.38;4.82;;;;;;;;;;5075741;28;20040;-62
2022/10/12 12:59:46;;;;;;;13.57;4.90;;;;;;;;;;5084476;28;20423;-63
2022/10/12 13:02:30;;;;;;;14.73;4.93;;;;;;;;;;5085432;28;20520;-63
2022/10/12 13:05:42;;;;;;;11.40;4.60;;;;;;;;;;5085237;28;20048;-62
2022/10/12 13:08:18;;;;;;;8.60;4.80;;;;;;;;;;5062878;28;20083;-63
2022/10/12 13:10:49;;;;;;;11.15;5.05;;;;;;;;;;5060961;28;20450;-61
2022/10/12 13:13:31;;;;;;;13.63;4.28;;;;;;;;;;5071390;28;20048;-60
2022/10/12 13:16:16;;;;;;;14.88;5.10;;;;;;;;;;5078310;28;20045;-60
2022/10/12 13:18:44;;;;;;;13.30;4.65;;;;;;;;;;5083586;28;20040;-61
2022/10/12 13:21:17;;;;;;;18.73;4.57;;;;;;;;;;5086271;28;20100;-61
2022/10/12 13:23:45;;;;;;;13.60;4.47;;;;;;;;;;5084743;28;20032;-61
2022/10/12 13:26:16;;;;;;;14.70;4.65;;;;;;;;;;5080055;28;20040;-61
2022/10/12 13:28:42;;;;;;;12.98;4.30;;;;;;;;;;5082854;28;20036;-60
2022/10/12 13:31:24;;;;;;;12.55;4.97;;;;;;;;;;5084388;28;20052;-60
2022/10/12 13:34:02;;;;;;;12.82;4.30;;;;;;;;;;5081229;28;20156;-60
2022/10/12 13:36:35;;;;;;;8.15;3.90;;;;;;;;;;5084567;28;20071;-61
2022/10/12 13:39:14;;;;;;;10.50;3.90;;;;;;;;;;5085193;28;20051;-61
2022/10/12 13:41:40;;;;;;;12.57;4.70;;;;;;;;;;5082621;28;20059;-60
2022/10/12 13:44:06;;;;;;;8.77;3.65;;;;;;;;;;5080031;28;20458;-60
2022/10/12 13:46:35;;;;;;;10.30;3.78;;;;;;;;;;5079140;28;20384;-62
2022/10/12 13:49:21;;;;;;;11.55;4.25;;;;;;;;;;5085909;28;20517;-62
2022/10/12 13:51:54;;;;;;;12.52;4.03;;;;;;;;;;5084626;28;20059;-63
2022/10/12 13:54:36;;;;;;;9.05;4.00;;;;;;;;;;5082809;28;20032;-64
2022/10/12 13:57:05;;;;;;;9.57;4.10;;;;;;;;;;5082701;28;20588;-64
2022/10/12 13:59:35;;;;;;;12.80;4.38;;;;;;;;;;5081923;28;20036;-64
2022/10/12 14:02:01;;;;;;;12.77;4.35;;;;;;;;;;5085474;28;20463;-63
2022/10/12 14:04:33;;;;;;;10.05;4.30;;;;;;;;;;5086843;28;20110;-63
2022/10/12 14:07:13;;;;;;;11.85;4.50;;;;;;;;;;5078458;28;20131;-60
2022/10/12 14:09:43;;;;;;;12.48;4.35;;;;;;;;;;5084184;28;20075;-60
2022/10/12 14:12:10;;;;;;;12.65;4.40;;;;;;;;;;5080279;28;20090;-61
2022/10/12 14:14:37;;;;;;;9.82;4.70;;;;;;;;;;5086652;28;20107;-61
2022/10/12 14:17:03;;;;;;;11.80;4.90;;;;;;;;;;5075947;28;20159;-61
2022/10/12 14:19:40;;;;;;;12.13;4.10;;;;;;;;;;5080197;28;20169;-63
2022/10/12 14:22:06;;;;;;;11.48;4.28;;;;;;;;;;5083824;28;20354;-61
2022/10/12 14:24:34;;;;;;;10.95;4.43;;;;;;;;;;5082513;28;20399;-62
2022/10/12 14:27:02;;;;;;;10.05;4.80;;;;;;;;;;5079188;28;20052;-61
2022/10/12 14:29:37;;;;;;;15.75;5.00;;;;;;;;;;5083162;28;20028;-60
2022/10/12 14:32:05;;;;;;;14.90;4.30;;;;;;;;;;5083225;28;20366;-60
2022/10/12 14:34:47;;;;;;;13.65;5.05;;;;;;;;;;5078305;28;20048;-61
2022/10/12 14:37:38;;;;;;;14.85;5.15;;;;;;;;;;5079202;28;20209;-60
2022/10/12 14:40:34;;;;;;;15.80;5.25;;;;;;;;;;5073459;28;20180;-64
2022/10/12 14:43:06;;;;;;;11.35;4.40;;;;;;;;;;5084462;28;20070;-61
2022/10/12 14:45:33;;;;;;;9.75;4.45;;;;;;;;;;5085279;28;20379;-62
2022/10/12 14:48:00;;;;;;;13.05;4.97;;;;;;;;;;5082456;28;20122;-63
2022/10/12 14:50:28;;;;;;;11.93;4.70;;;;;;;;;;5080304;28;20031;-62
2022/10/12 14:52:56;;;;;;;12.90;4.55;;;;;;;;;;5079645;28;20059;-61
2022/10/12 14:55:28;;;;;;;10.85;4.80;;;;;;;;;;5086375;28;20039;-62
2022/10/12 14:57:53;;;;;;;10.43;4.30;;;;;;;;;;5083643;28;20060;-61
2022/10/12 15:00:38;;;;;;;9.68;4.60;;;;;;;;;;5083464;28;20117;-61